createdAt,value
2023-05-10T00:02:03.994Z,99849.63
2023-05-10T00:04:53.340Z,99853.72
2023-05-10T00:07:41.979Z,99849.25
2023-05-10T00:10:30.627Z,99850.88
2023-05-10T00:13:21.806Z,99845.97
2023-05-10T00:16:10.539Z,99847.75
2023-05-10T00:19:01.372Z,99841.38
2023-05-10T00:21:50.316Z,99841.38
2023-05-10T00:24:40.856Z,99839.75
2023-05-10T00:27:29.547Z,99842.25
2023-05-10T00:30:19.876Z,99833.47
2023-05-10T00:33:08.808Z,99837.78
2023-05-10T00:35:57.414Z,99821.31
2023-05-10T00:38:46.763Z,99823.38
2023-05-10T00:41:35.859Z,99832.44
2023-05-10T00:44:24.523Z,99806.47
2023-05-10T00:47:16.222Z,99811.81
2023-05-10T00:50:05.698Z,99815.53
2023-05-10T00:52:55.043Z,99813.66
2023-05-10T00:55:44.358Z,99814.47
2023-05-10T00:58:32.934Z,99810.16
2023-05-10T01:01:22.240Z,99811.81
2023-05-10T01:04:13.758Z,99816.13
2023-05-10T01:07:02.495Z,99811.63
2023-05-10T01:09:51.779Z,99808.75
2023-05-10T01:12:44.827Z,99813.88
2023-05-10T01:15:34.125Z,99807.06
2023-05-10T01:18:23.771Z,99809.94
2023-05-10T01:21:25.974Z,99805.22
2023-05-10T01:24:36.899Z,99802.59
2023-05-10T01:27:53.944Z,99803.25
2023-05-10T01:31:21.197Z,99814.31
2023-05-10T01:34:15.305Z,99811.41
2023-05-10T01:37:08.588Z,99803.00
2023-05-10T01:40:05.834Z,99796.63
2023-05-10T01:43:02.635Z,99794.56
2023-05-10T01:46:05.530Z,99792.91
2023-05-10T01:48:58.308Z,99798.25
2023-05-10T01:51:54.666Z,99799.16
2023-05-10T01:54:47.949Z,99807.75
2023-05-10T01:57:40.296Z,99802.66
2023-05-10T02:00:31.288Z,99805.75
2023-05-10T02:03:23.461Z,99799.16
2023-05-10T02:06:15.559Z,99793.41
2023-05-10T02:09:06.516Z,99799.16
2023-05-10T02:11:56.466Z,99790.53
2023-05-10T02:14:45.801Z,99795.94
2023-05-10T02:17:35.722Z,99790.97
2023-05-10T02:20:26.228Z,99784.22
2023-05-10T02:23:16.125Z,99792.00
2023-05-10T02:26:08.744Z,99782.50
2023-05-10T02:28:59.489Z,99780.88
2023-05-10T02:31:49.051Z,99783.97
2023-05-10T02:34:38.617Z,99788.44
2023-05-10T02:37:28.608Z,99787.25
2023-05-10T02:40:19.670Z,99788.44
2023-05-10T02:43:14.556Z,99774.81
2023-05-10T02:46:04.020Z,99785.94
2023-05-10T02:48:52.674Z,99783.25
2023-05-10T02:52:01.067Z,99785.13
2023-05-10T02:54:54.788Z,99781.47
2023-05-10T02:57:49.188Z,99785.19
2023-05-10T03:00:39.330Z,99779.53
2023-05-10T03:03:27.938Z,99786.75
2023-05-10T03:06:17.219Z,99789.44
2023-05-10T03:09:06.307Z,99788.25
2023-05-10T03:12:03.792Z,99787.84
2023-05-10T03:15:06.176Z,99788.91
2023-05-10T03:17:59.994Z,99787.69
2023-05-10T03:20:51.361Z,99778.41
2023-05-10T03:23:44.740Z,99783.56
2023-05-10T03:26:34.595Z,99774.56
2023-05-10T03:29:24.392Z,99776.19
2023-05-10T03:32:14.115Z,99766.75
2023-05-10T03:35:08.849Z,99758.50
2023-05-10T03:37:57.396Z,99767.13
2023-05-10T03:40:46.115Z,99773.91
2023-05-10T03:43:34.753Z,99778.41
2023-05-10T03:46:23.395Z,99778.63
2023-05-10T03:49:12.014Z,99772.84
2023-05-10T03:52:02.448Z,99781.59
2023-05-10T03:54:51.024Z,99788.13
2023-05-10T03:57:39.606Z,99788.19
2023-05-10T04:00:28.187Z,99802.09
2023-05-10T04:03:19.513Z,99793.41
2023-05-10T04:06:10.126Z,99792.63
2023-05-10T04:09:04.891Z,99800.91
2023-05-10T04:11:53.482Z,99790.97
2023-05-10T04:14:42.136Z,99797.78
2023-05-10T04:17:30.838Z,99791.41
2023-05-10T04:20:19.773Z,99794.31
2023-05-10T04:23:08.611Z,99782.78
2023-05-10T04:26:03.327Z,99793.47
2023-05-10T04:28:52.192Z,99788.50
2023-05-10T04:31:41.858Z,99784.41
2023-05-10T04:34:30.563Z,99780.81
2023-05-10T04:37:19.300Z,99790.72
2023-05-10T04:40:09.217Z,99786.06
2023-05-10T04:42:59.320Z,99790.00
2023-05-10T04:45:47.971Z,99785.69
2023-05-10T04:48:36.582Z,99780.78
2023-05-10T04:51:25.173Z,99773.16
2023-05-10T04:54:13.775Z,99780.00
2023-05-10T04:57:02.664Z,99779.81
2023-05-10T04:59:53.783Z,99779.03
2023-05-10T05:02:46.261Z,99785.66
2023-05-10T05:05:36.007Z,99777.84
2023-05-10T05:08:24.957Z,99775.31
2023-05-10T05:11:13.591Z,99772.53
2023-05-10T05:14:02.230Z,99775.84
2023-05-10T05:16:52.241Z,99780.41
2023-05-10T05:19:40.833Z,99789.00
2023-05-10T05:22:29.489Z,99781.19
2023-05-10T05:25:18.463Z,99782.47
2023-05-10T05:28:07.104Z,99775.50
2023-05-10T05:30:55.842Z,99774.31
2023-05-10T05:33:45.961Z,99778.81
2023-05-10T05:36:37.071Z,99770.59
2023-05-10T05:39:26.284Z,99768.31
2023-05-10T05:42:17.436Z,99772.47
2023-05-10T05:45:06.594Z,99777.56
2023-05-10T05:47:55.359Z,99780.84
2023-05-10T05:50:46.672Z,99773.44
2023-05-10T05:53:35.406Z,99773.03
2023-05-10T05:56:25.426Z,99776.69
2023-05-10T05:59:14.249Z,99780.50
2023-05-10T06:02:03.015Z,99784.41
2023-05-10T06:04:51.624Z,99786.09
2023-05-10T06:07:43.118Z,99795.16
2023-05-10T06:10:32.823Z,99791.28
2023-05-10T06:13:22.277Z,99784.72
2023-05-10T06:16:10.929Z,99802.19
2023-05-10T06:18:59.961Z,99786.78
2023-05-10T06:21:48.560Z,99797.09
2023-05-10T06:24:40.739Z,99793.19
2023-05-10T06:27:29.590Z,99792.34
2023-05-10T06:30:18.395Z,99810.03
2023-05-10T06:33:07.273Z,99791.34
2023-05-10T06:35:56.217Z,99796.50
2023-05-10T06:38:45.089Z,99794.06
2023-05-10T06:41:35.240Z,99803.50
2023-05-10T06:44:23.955Z,99789.91
2023-05-10T06:47:12.723Z,99792.34
2023-05-10T06:50:02.223Z,99790.72
2023-05-10T06:52:53.386Z,99795.25
2023-05-10T06:55:42.465Z,99797.69
2023-05-10T06:58:33.727Z,99794.88
2023-05-10T07:01:22.439Z,99788.72
2023-05-10T07:04:11.220Z,99793.41
2023-05-10T07:07:00.093Z,99792.16
2023-05-10T07:09:48.962Z,99791.97
2023-05-10T07:12:37.713Z,99786.41
2023-05-10T07:15:27.737Z,99790.72
2023-05-10T07:18:16.385Z,99796.50
2023-05-10T07:21:05.258Z,99799.78
2023-05-10T07:23:53.899Z,99786.84
2023-05-10T07:26:42.736Z,99789.69
2023-05-10T07:29:31.401Z,99784.97
2023-05-10T07:32:21.545Z,99788.50
2023-05-10T07:35:11.113Z,99791.16
2023-05-10T07:38:00.123Z,99788.50
2023-05-10T07:40:48.790Z,99791.16
2023-05-10T07:43:37.946Z,99793.22
2023-05-10T07:46:26.675Z,99804.50
2023-05-10T07:49:16.615Z,99789.53
2023-05-10T07:52:06.335Z,99792.34
2023-05-10T07:54:55.717Z,99797.69
2023-05-10T07:57:44.834Z,99796.25
2023-05-10T08:00:33.822Z,99786.66
2023-05-10T08:03:23.564Z,99792.78
2023-05-10T08:06:13.907Z,99791.28
2023-05-10T08:09:02.634Z,99790.25
2023-05-10T08:11:51.690Z,99787.38
2023-05-10T08:14:40.403Z,99783.66
2023-05-10T08:17:29.012Z,99790.25
2023-05-10T08:20:19.975Z,99790.25
2023-05-10T08:23:10.014Z,99787.81
2023-05-10T08:25:59.069Z,99780.00
2023-05-10T08:28:47.643Z,99792.72
2023-05-10T08:31:36.269Z,99790.69
2023-05-10T08:34:25.235Z,99791.09
2023-05-10T08:37:14.482Z,99797.25
2023-05-10T08:40:05.153Z,99807.50
2023-05-10T08:42:58.059Z,99805.00
2023-05-10T08:45:48.012Z,99810.34
2023-05-10T08:48:37.566Z,99804.63
2023-05-10T08:51:29.371Z,99811.16
2023-05-10T08:54:18.533Z,99824.09
2023-05-10T08:57:10.577Z,99819.63
2023-05-10T08:59:59.325Z,99821.84
2023-05-10T09:02:50.259Z,99827.63
2023-05-10T09:05:39.282Z,99825.75
2023-05-10T09:08:28.659Z,99828.06
2023-05-10T09:11:17.686Z,99832.97
2023-05-10T09:14:07.801Z,99827.34
2023-05-10T09:16:57.085Z,99828.78
2023-05-10T09:19:47.157Z,99838.25
2023-05-10T09:22:36.252Z,99832.91
2023-05-10T09:25:24.802Z,99824.44
2023-05-10T09:28:14.175Z,99830.63
2023-05-10T09:31:04.197Z,99822.22
2023-05-10T09:33:53.428Z,99829.63
2023-05-10T09:36:53.509Z,99828.16
2023-05-10T09:39:42.379Z,99826.69
2023-05-10T09:42:30.982Z,99839.00
2023-05-10T09:45:19.665Z,99837.75
2023-05-10T09:48:09.806Z,99834.88
2023-05-10T09:51:02.105Z,99832.81
2023-05-10T09:53:52.102Z,99834.44
2023-05-10T09:56:41.762Z,99836.94
2023-05-10T09:59:32.849Z,99839.38
2023-05-10T10:02:22.008Z,99837.69
2023-05-10T10:05:14.169Z,99833.19
2023-05-10T10:08:05.294Z,99836.31
2023-05-10T10:10:54.260Z,99839.97
2023-05-10T10:13:43.176Z,99834.81
2023-05-10T10:16:32.753Z,99831.56
2023-05-10T10:19:24.247Z,99831.50
2023-05-10T10:22:14.378Z,99822.50
2023-05-10T10:25:03.063Z,99829.28
2023-05-10T10:28:08.125Z,99825.38
2023-05-10T10:30:58.570Z,99829.47
2023-05-10T10:34:01.775Z,99825.31
2023-05-10T10:36:50.899Z,99821.47
2023-05-10T10:39:40.973Z,99822.84
2023-05-10T10:42:48.012Z,99824.88
2023-05-10T10:45:36.910Z,99828.59
2023-05-10T10:48:26.285Z,99831.47
2023-05-10T10:51:16.126Z,99833.53
2023-05-10T10:54:12.091Z,99836.38
2023-05-10T10:57:17.807Z,99834.72
2023-05-10T11:00:24.083Z,99831.91
2023-05-10T11:03:18.520Z,99828.19
2023-05-10T11:06:08.888Z,99834.72
2023-05-10T11:08:57.515Z,99830.81
2023-05-10T11:11:56.213Z,99826.84
2023-05-10T11:14:52.752Z,99836.38
2023-05-10T11:17:41.498Z,99843.78
2023-05-10T11:20:34.348Z,99827.91
2023-05-10T11:23:22.946Z,99832.00
2023-05-10T11:26:12.024Z,99833.03
2023-05-10T11:29:01.791Z,99835.53
2023-05-10T11:31:52.377Z,99842.91
2023-05-10T11:34:43.684Z,99847.84
2023-05-10T11:37:35.168Z,99841.25
2023-05-10T11:40:25.792Z,99837.94
2023-05-10T11:43:14.558Z,99843.69
2023-05-10T11:46:03.795Z,99846.50
2023-05-10T11:48:56.719Z,99843.53
2023-05-10T11:51:45.936Z,99848.44
2023-05-10T11:54:35.772Z,99843.84
2023-05-10T11:57:29.709Z,99839.97
2023-05-10T12:00:18.948Z,99836.25
2023-05-10T12:03:08.446Z,99841.00
2023-05-10T12:06:01.639Z,99852.31
2023-05-10T12:08:53.462Z,99847.34
2023-05-10T12:11:44.542Z,99847.53
2023-05-10T12:14:40.079Z,99858.69
2023-05-10T12:17:30.789Z,99860.13
2023-05-10T12:20:21.505Z,99851.25
2023-05-10T12:23:14.550Z,99851.06
2023-05-10T12:26:06.774Z,99860.25
2023-05-10T12:28:55.883Z,99854.72
2023-05-10T12:31:55.486Z,99863.78
2023-05-10T12:34:44.748Z,99854.72
2023-05-10T12:37:37.073Z,99853.50
2023-05-10T12:40:28.560Z,99862.56
2023-05-10T12:43:20.404Z,99868.09
2023-05-10T12:46:11.581Z,99853.50
2023-05-10T12:49:09.189Z,99868.22
2023-05-10T12:51:58.892Z,99867.63
2023-05-10T12:54:50.222Z,99865.41
2023-05-10T12:57:40.198Z,99856.50
2023-05-10T13:00:28.947Z,99862.88
2023-05-10T13:03:17.755Z,99868.81
2023-05-10T13:06:07.486Z,99879.16
2023-05-10T13:08:58.575Z,99872.34
2023-05-10T13:11:48.968Z,99874.81
2023-05-10T13:14:39.078Z,99869.88
2023-05-10T13:17:28.725Z,99864.53
2023-05-10T13:20:18.234Z,99871.44
2023-05-10T13:23:07.070Z,99872.28
2023-05-10T13:25:55.692Z,99878.06
2023-05-10T13:28:44.296Z,99873.97
2023-05-10T13:31:34.626Z,99871.41
2023-05-10T13:34:23.854Z,99866.50
2023-05-10T13:37:13.743Z,99868.56
2023-05-10T13:40:02.672Z,99870.09
2023-05-10T13:42:51.979Z,99877.09
2023-05-10T13:45:41.277Z,99867.47
2023-05-10T13:48:31.416Z,99864.63
2023-05-10T13:51:20.040Z,99868.28
2023-05-10T13:54:12.058Z,99872.00
2023-05-10T13:57:04.207Z,99876.56
2023-05-10T13:59:57.056Z,99869.53
2023-05-10T14:02:46.571Z,99867.47
2023-05-10T14:05:36.934Z,99874.88
2023-05-10T14:08:28.167Z,99868.09
2023-05-10T14:11:18.847Z,99864.97
2023-05-10T14:14:08.627Z,99861.69
2023-05-10T14:16:57.326Z,99862.13
2023-05-10T14:19:46.498Z,99857.97
2023-05-10T14:22:36.727Z,99857.94
2023-05-10T14:25:26.003Z,99856.28
2023-05-10T14:28:15.783Z,99855.41
2023-05-10T14:31:06.568Z,99859.34
2023-05-10T14:33:55.891Z,99851.16
2023-05-10T14:36:45.641Z,99857.53
2023-05-10T14:39:36.190Z,99856.69
2023-05-10T14:42:25.237Z,99859.13
2023-05-10T14:45:17.024Z,99852.78
2023-05-10T14:48:06.934Z,99861.19
2023-05-10T14:50:55.779Z,99857.09
2023-05-10T14:53:45.290Z,99867.84
2023-05-10T14:56:35.812Z,99859.03
2023-05-10T14:59:24.520Z,99863.13
2023-05-10T15:02:13.698Z,99867.44
2023-05-10T15:05:03.483Z,99871.09
2023-05-10T15:07:52.932Z,99863.81
2023-05-10T15:10:42.561Z,99864.41
2023-05-10T15:13:33.934Z,99868.56
2023-05-10T15:16:23.000Z,99868.22
2023-05-10T15:19:11.873Z,99877.69
2023-05-10T15:22:03.427Z,99871.19
2023-05-10T15:24:52.241Z,99876.09
2023-05-10T15:27:40.961Z,99878.13
2023-05-10T15:30:32.808Z,99883.88
2023-05-10T15:33:21.713Z,99872.84
2023-05-10T15:36:10.870Z,99881.91
2023-05-10T15:38:59.738Z,99878.00
2023-05-10T15:41:49.849Z,99889.56
2023-05-10T15:44:39.885Z,99883.63
2023-05-10T15:47:30.251Z,99891.81
2023-05-10T15:50:19.207Z,99902.50
2023-05-10T15:53:07.972Z,99893.25
2023-05-10T15:55:56.836Z,99895.53
2023-05-10T15:58:46.187Z,99897.63
2023-05-10T16:01:35.012Z,99895.00
2023-05-10T16:04:25.475Z,99902.00
2023-05-10T16:07:17.904Z,99895.81
2023-05-10T16:10:07.962Z,99905.06
2023-05-10T16:12:57.080Z,99906.75
2023-05-10T16:15:46.081Z,99904.66
2023-05-10T16:18:34.942Z,99914.13
2023-05-10T16:21:25.690Z,99907.34
2023-05-10T16:24:15.007Z,99907.94
2023-05-10T16:27:05.634Z,99911.81
2023-05-10T16:29:55.633Z,99914.03
2023-05-10T16:32:44.384Z,99921.06
2023-05-10T16:35:33.108Z,99920.44
2023-05-10T16:38:23.388Z,99933.59
2023-05-10T16:41:12.543Z,99924.34
2023-05-10T16:44:01.641Z,99927.22
2023-05-10T16:46:53.241Z,99934.44
2023-05-10T16:49:42.307Z,99929.09
2023-05-10T16:52:32.676Z,99936.06
2023-05-10T16:55:26.186Z,99932.94
2023-05-10T16:58:15.173Z,99937.84
2023-05-10T17:01:03.908Z,99941.41
2023-05-10T17:03:52.831Z,99951.06
2023-05-10T17:06:41.789Z,99941.56
2023-05-10T17:09:30.441Z,99951.22
2023-05-10T17:12:21.653Z,99952.22
2023-05-10T17:15:11.941Z,99953.91
2023-05-10T17:18:01.148Z,99955.53
2023-05-10T17:20:50.931Z,99955.53
2023-05-10T17:23:39.588Z,99953.91
2023-05-10T17:26:30.080Z,99966.84
2023-05-10T17:29:21.854Z,99966.22
2023-05-10T17:32:10.783Z,99963.56
2023-05-10T17:35:00.129Z,99963.34
2023-05-10T17:37:48.905Z,99974.06
2023-05-10T17:40:37.866Z,99973.63
2023-05-10T17:43:26.903Z,99978.97
2023-05-10T17:46:17.244Z,99976.28
2023-05-10T17:49:07.060Z,99986.78
2023-05-10T17:51:55.905Z,99982.47
2023-05-10T17:54:47.899Z,99986.38
2023-05-10T17:57:38.860Z,99985.56
2023-05-10T18:00:27.568Z,99989.25
2023-05-10T18:03:18.349Z,99992.97
2023-05-10T18:06:07.677Z,99993.16
2023-05-10T18:08:57.238Z,99990.50
2023-05-10T18:11:46.557Z,99990.91
2023-05-10T18:14:40.973Z,99992.78
2023-05-10T18:17:30.538Z,100001.59
2023-05-10T18:20:21.041Z,100002.81
2023-05-10T18:23:10.086Z,100004.66
2023-05-10T18:25:59.471Z,100004.47
2023-05-10T18:28:49.246Z,100013.09
2023-05-10T18:31:38.621Z,100008.53
2023-05-10T18:34:29.133Z,100004.81
2023-05-10T18:37:19.320Z,100008.91
2023-05-10T18:40:13.598Z,100011.81
2023-05-10T18:43:03.283Z,100012.84
2023-05-10T18:45:53.028Z,100016.13
2023-05-10T18:48:42.084Z,100010.78
2023-05-10T18:51:33.063Z,100018.31
2023-05-10T18:54:24.204Z,100022.91
2023-05-10T18:57:15.215Z,100029.44
2023-05-10T19:00:05.492Z,100031.53
2023-05-10T19:02:54.725Z,100027.13
2023-05-10T19:05:43.643Z,100032.72
2023-05-10T19:08:33.926Z,100030.63
2023-05-10T19:11:25.574Z,100033.91
2023-05-10T19:14:14.256Z,100036.19
2023-05-10T19:17:06.132Z,100042.56
2023-05-10T19:19:56.660Z,100044.22
2023-05-10T19:23:02.222Z,100054.03
2023-05-10T19:25:55.923Z,100056.09
2023-05-10T19:28:46.287Z,100054.91
2023-05-10T19:31:35.652Z,100051.59
2023-05-10T19:34:25.891Z,100058.53
2023-05-10T19:37:15.452Z,100063.50
2023-05-10T19:40:04.774Z,100059.97
2023-05-10T19:42:53.692Z,100059.56
2023-05-10T19:45:47.849Z,100064.25
2023-05-10T19:48:36.677Z,100060.19
2023-05-10T19:51:27.750Z,100058.53
2023-05-10T19:54:18.691Z,100055.81
2023-05-10T19:57:08.709Z,100056.47
2023-05-10T19:59:58.149Z,100061.03
2023-05-10T20:02:48.386Z,100063.88
2023-05-10T20:05:37.682Z,100060.59
2023-05-10T20:08:26.388Z,100058.94
2023-05-10T20:11:15.356Z,100063.69
2023-05-10T20:14:07.425Z,100063.88
2023-05-10T20:16:58.791Z,100060.19
2023-05-10T20:19:48.947Z,100061.81
2023-05-10T20:22:37.641Z,100057.91
2023-05-10T20:25:26.746Z,100063.44
2023-05-10T20:28:17.213Z,100058.09
2023-05-10T20:31:12.737Z,100068.31
2023-05-10T20:34:03.721Z,100069.59
2023-05-10T20:36:57.598Z,100064.66
2023-05-10T20:39:50.305Z,100066.22
2023-05-10T20:42:39.402Z,100061.13
2023-05-10T20:45:28.168Z,100067.50
2023-05-10T20:48:18.056Z,100067.50
2023-05-10T20:51:07.063Z,100065.88
2023-05-10T20:53:57.316Z,100067.50
2023-05-10T20:56:45.999Z,100066.91
2023-05-10T20:59:34.796Z,100069.16
2023-05-10T21:02:23.575Z,100062.75
2023-05-10T21:05:12.619Z,100072.03
2023-05-10T21:08:01.336Z,100066.69
2023-05-10T21:10:51.534Z,100062.56
2023-05-10T21:13:40.164Z,100072.88
2023-05-10T21:16:33.546Z,100066.28
2023-05-10T21:19:22.228Z,100071.22
2023-05-10T21:22:13.714Z,100063.84
2023-05-10T21:25:05.453Z,100068.38
2023-05-10T21:27:55.743Z,100068.38
2023-05-10T21:30:44.419Z,100067.16
2023-05-10T21:33:33.204Z,100080.28
2023-05-10T21:36:22.154Z,100077.00
2023-05-10T21:39:12.432Z,100081.16
2023-05-10T21:42:04.023Z,100073.75
2023-05-10T21:44:56.658Z,100073.59
2023-05-10T21:47:45.820Z,100072.66
2023-05-10T21:50:35.982Z,100074.72
2023-05-10T21:53:24.541Z,100078.41
2023-05-10T21:56:13.168Z,100074.72
2023-05-10T21:59:01.914Z,100078.84
2023-05-10T22:01:51.888Z,100081.34
2023-05-10T22:04:40.595Z,100086.25
2023-05-10T22:07:29.238Z,100091.00
2023-05-10T22:10:18.617Z,100085.66
2023-05-10T22:13:08.716Z,100088.34
2023-05-10T22:15:57.322Z,100089.53
2023-05-10T22:18:47.305Z,100085.03
2023-05-10T22:21:35.960Z,100088.34
2023-05-10T22:24:24.537Z,100090.41
2023-05-10T22:27:13.205Z,100088.34
2023-05-10T22:30:02.104Z,100090.41
2023-05-10T22:32:51.411Z,100093.28
2023-05-10T22:35:43.837Z,100094.53
2023-05-10T22:38:34.102Z,100090.00
2023-05-10T22:41:23.202Z,100091.22
2023-05-10T22:44:11.882Z,100092.44
2023-05-10T22:47:00.714Z,100092.28
2023-05-10T22:49:49.302Z,100086.31
2023-05-10T22:52:39.933Z,100092.47
2023-05-10T22:55:28.592Z,100086.72
2023-05-10T22:58:17.614Z,100091.69
2023-05-10T23:01:06.478Z,100085.72
2023-05-10T23:03:55.188Z,100091.69
2023-05-10T23:06:44.073Z,100097.47
2023-05-10T23:09:34.815Z,100102.81
2023-05-10T23:12:23.424Z,100099.50
2023-05-10T23:15:12.952Z,100093.75
2023-05-10T23:18:01.715Z,100101.16
2023-05-10T23:20:50.344Z,100097.06
2023-05-10T23:23:39.013Z,100097.84
2023-05-10T23:26:29.035Z,100101.56
2023-05-10T23:29:17.660Z,100099.31
2023-05-10T23:32:06.854Z,100100.16
2023-05-10T23:34:55.500Z,100093.97
2023-05-10T23:37:44.128Z,100103.84
2023-05-10T23:40:32.718Z,100104.84
2023-05-10T23:43:22.756Z,100104.44
2023-05-10T23:46:11.356Z,100100.50
2023-05-10T23:49:00.034Z,100103.84
2023-05-10T23:51:48.626Z,100098.28
2023-05-10T23:54:37.410Z,100081.81
2023-05-10T23:57:26.135Z,100096.22
